Time;durP1;ratioP1;P1;durP2;ratioP2;P2;SDS_P1;SDS_P2;PMS_P1;PMS_P2;Temp;Humidity;BMP_temperature;BMP_pressure;BME280_temperature;BME280_humidity;BME280_pressure;Samples;Min_cycle;Max_cycle;Signal;HPM_P1;HPM_P2
2021/12/15 00:00:07;;;;;;;116.20;56.00;;;;;;;2.25;89.71;101048.80;103408;1321;138029;-78
2021/12/15 00:03:03;;;;;;;115.90;55.20;;;;;;;2.27;89.56;101048.84;102965;1320;109351;-78
2021/12/15 00:05:36;;;;;;;116.70;55.80;;;;;;;2.21;89.28;101044.82;102492;1325;138400;-79
2021/12/15 00:08:11;;;;;;;109.40;53.30;;;;;;;2.19;89.45;101049.42;102722;1318;97896;-77
2021/12/15 00:10:44;;;;;;;106.40;52.30;;;;;;;2.13;89.32;101048.11;102872;1321;139410;-79
2021/12/15 00:13:19;;;;;;;111.90;53.90;;;;;;;2.10;89.26;101048.41;102962;1324;112248;-77
2021/12/15 00:15:51;;;;;;;103.90;50.40;;;;;;;2.10;89.56;101047.73;103031;1320;139136;-77
2021/12/15 00:18:23;;;;;;;105.30;50.40;;;;;;;2.08;89.31;101052.50;103186;1324;108998;-78
2021/12/15 00:20:55;;;;;;;105.20;50.70;;;;;;;2.08;89.37;101053.37;104164;1319;96211;-78
2021/12/15 00:23:27;;;;;;;108.70;51.40;;;;;;;2.11;89.67;101048.10;103190;1320;139167;-78
2021/12/15 00:26:00;;;;;;;103.50;50.70;;;;;;;2.13;89.55;101042.98;102995;1316;113005;-79
2021/12/15 00:28:33;;;;;;;109.60;51.80;;;;;;;2.13;89.53;101043.31;101945;1316;140093;-78
2021/12/15 00:31:05;;;;;;;117.80;52.10;;;;;;;2.11;89.60;101039.34;102971;1321;109157;-80
2021/12/15 00:33:40;;;;;;;108.90;51.50;;;;;;;2.09;89.62;101041.55;102916;1321;97891;-77
2021/12/15 00:36:15;;;;;;;95.10;48.50;;;;;;;2.11;89.75;101047.05;103755;1320;139782;-78
2021/12/15 00:38:47;;;;;;;95.10;47.20;;;;;;;2.13;89.85;101048.80;104024;1321;112331;-78
2021/12/15 00:41:20;;;;;;;96.60;48.60;;;;;;;2.13;89.69;101047.60;103300;1321;138570;-77
2021/12/15 00:43:52;;;;;;;97.50;46.30;;;;;;;2.13;89.76;101049.83;102927;1320;108841;-77
2021/12/15 00:46:24;;;;;;;96.00;46.40;;;;;;;2.15;89.88;101053.14;102791;1321;139272;-77
2021/12/15 00:48:58;;;;;;;100.80;47.80;;;;;;;2.20;89.98;101063.84;102939;1321;97910;-77
2021/12/15 00:51:30;;;;;;;112.70;48.50;;;;;;;2.26;90.26;101073.02;102946;1324;112749;-78
2021/12/15 00:54:03;;;;;;;117.30;49.90;;;;;;;2.28;90.06;101073.05;102744;1321;138372;-78
2021/12/15 00:56:35;;;;;;;111.80;50.30;;;;;;;2.29;90.19;101074.44;102914;1319;108940;-78
2021/12/15 00:59:09;;;;;;;114.40;48.70;;;;;;;2.29;90.03;101077.01;103610;1321;138851;-78
2021/12/15 01:01:42;;;;;;;106.40;47.00;;;;;;;2.30;89.76;101084.05;102876;1321;97894;-78
2021/12/15 01:04:18;;;;;;;101.50;46.20;;;;;;;2.28;89.63;101082.66;104023;1318;139568;-79
2021/12/15 01:06:55;;;;;;;95.30;45.00;;;;;;;2.24;89.60;101087.92;103547;1320;109292;-78
2021/12/15 01:09:32;;;;;;;93.20;46.80;;;;;;;2.24;89.70;101091.02;102684;1321;109079;-78
2021/12/15 01:12:16;;;;;;;96.30;44.00;;;;;;;2.25;89.48;101088.96;103997;1321;140661;-78
2021/12/15 01:20:38;;;;;;;109.80;46.00;;;;;;;2.29;89.98;101087.81;103058;1319;107967;-78
2021/12/15 01:23:13;;;;;;;140.50;47.80;;;;;;;2.30;89.63;101085.60;102677;1324;139585;-77
2021/12/15 01:25:49;;;;;;;103.50;46.10;;;;;;;2.32;89.59;101083.56;102973;1319;97892;-78
2021/12/15 01:28:26;;;;;;;106.70;43.00;;;;;;;2.31;89.56;101090.59;103937;1322;138695;-78
2021/12/15 01:30:58;;;;;;;106.30;43.20;;;;;;;2.28;89.28;101099.48;104211;1320;111247;-78
2021/12/15 01:33:31;;;;;;;97.80;43.60;;;;;;;2.26;89.69;101089.67;104228;1321;109055;-78
2021/12/15 01:36:07;;;;;;;93.90;44.00;;;;;;;2.25;89.57;101080.90;103340;1320;138859;-77
2021/12/15 01:38:42;;;;;;;98.10;42.30;;;;;;;2.23;89.19;101079.67;104213;1317;96989;-78
2021/12/15 01:41:20;;;;;;;96.60;41.90;;;;;;;2.20;89.36;101079.12;103814;1321;138985;-78
2021/12/15 01:46:59;;;;;;;92.70;40.40;;;;;;;2.26;89.75;101092.74;103261;1325;140773;-78
2021/12/15 01:49:37;;;;;;;106.60;40.80;;;;;;;2.31;89.49;101094.71;104020;1320;107690;-78
2021/12/15 01:52:14;;;;;;;101.70;39.60;;;;;;;2.30;89.41;101091.95;104110;1323;138471;-78
2021/12/15 01:54:49;;;;;;;118.80;42.10;;;;;;;2.31;89.48;101088.86;103783;1321;96111;-78
2021/12/15 01:57:25;;;;;;;145.70;41.90;;;;;;;2.31;89.23;101090.60;104100;1318;112391;-78
2021/12/15 01:59:58;;;;;;;108.20;40.80;;;;;;;2.26;89.08;101095.67;104109;1321;138396;-78
2021/12/15 02:02:31;;;;;;;94.10;40.80;;;;;;;2.24;89.19;101099.60;104025;1320;109016;-78
2021/12/15 02:05:04;;;;;;;89.80;38.80;;;;;;;2.25;89.31;101097.20;104053;1320;138481;-78
2021/12/15 02:07:36;;;;;;;88.80;38.70;;;;;;;2.22;89.15;101096.48;103355;1320;97833;-77
2021/12/15 02:10:10;;;;;;;77.10;37.90;;;;;;;2.26;89.42;101095.83;103929;1320;139291;-78
2021/12/15 02:13:01;;;;;;;76.50;37.30;;;;;;;2.32;89.75;101101.77;104099;1320;109310;-78
2021/12/15 02:15:36;;;;;;;75.90;37.70;;;;;;;2.32;89.58;101097.14;102869;1324;108885;-79
2021/12/15 02:18:10;;;;;;;95.10;37.80;;;;;;;2.37;89.50;101095.50;103261;1320;139114;-78
2021/12/15 02:20:45;;;;;;;93.00;37.30;;;;;;;2.41;89.60;101092.64;104010;1320;96206;-78
2021/12/15 02:23:21;;;;;;;104.10;37.30;;;;;;;2.41;89.18;101087.15;103731;1320;138336;-78
2021/12/15 02:25:53;;;;;;;107.20;38.80;;;;;;;2.39;89.37;101091.58;102924;1321;109142;-78
2021/12/15 02:28:26;;;;;;;95.20;38.40;;;;;;;2.37;89.12;101098.77;103288;1325;138638;-78
2021/12/15 02:31:07;;;;;;;95.30;37.90;;;;;;;2.33;89.21;101099.22;103053;1320;97879;-77
2021/12/15 02:33:56;;;;;;;93.80;37.70;;;;;;;2.32;89.18;101103.64;103345;1321;97891;-77
2021/12/15 02:39:18;;;;;;;89.80;37.30;;;;;;;2.34;89.40;101108.50;104199;1316;109119;-79
2021/12/15 02:41:51;;;;;;;84.50;36.00;;;;;;;2.36;89.58;101110.09;103593;1320;138663;-78
2021/12/15 02:44:24;;;;;;;92.20;36.00;;;;;;;2.44;89.63;101109.15;104234;1320;95960;-78
2021/12/15 02:46:57;;;;;;;90.90;37.60;;;;;;;2.47;89.32;101104.20;103638;1321;138346;-78
2021/12/15 02:49:30;;;;;;;84.80;36.90;;;;;;;2.43;89.16;101097.30;104127;1320;111727;-77
2021/12/15 02:52:05;;;;;;;99.30;37.70;;;;;;;2.42;89.36;101096.77;103491;1321;109162;-78
2021/12/15 02:54:38;;;;;;;93.20;37.30;;;;;;;2.40;88.95;101093.84;103338;1320;138478;-77
2021/12/15 02:57:12;;;;;;;83.70;36.40;;;;;;;2.38;89.09;101095.52;103668;1321;97860;-78
2021/12/15 02:59:54;;;;;;;86.20;35.10;;;;;;;2.37;89.17;101097.57;102909;1325;139356;-77
2021/12/15 03:05:20;;;;;;;79.60;35.00;;;;;;;2.38;89.39;101096.55;103375;1323;140214;-78
2021/12/15 03:08:01;;;;;;;;;;;;;;;2.38;89.18;101098.45;104214;1323;109060;-79
2021/12/15 03:16:15;;;;;;;103.40;36.50;;;;;;;2.44;89.05;101102.45;102895;1320;138654;-70
2021/12/15 03:18:48;;;;;;;81.20;36.10;;;;;;;2.40;88.91;101104.13;104142;1323;109476;-78
2021/12/15 03:21:25;;;;;;;82.50;34.80;;;;;;;2.33;88.79;101108.30;102983;1320;109193;-77
2021/12/15 03:24:01;;;;;;;83.30;34.90;;;;;;;2.31;89.07;101111.52;102699;1321;139709;-78
2021/12/15 03:26:40;;;;;;;75.50;33.30;;;;;;;2.33;89.26;101109.67;102927;1320;97993;-77
2021/12/15 03:35:06;;;;;;;73.80;33.70;;;;;;;2.33;89.25;101126.15;102919;1321;139566;-78
2021/12/15 03:37:41;;;;;;;76.30;35.10;;;;;;;2.35;89.50;101128.43;102963;1320;97866;-78
2021/12/15 03:40:19;;;;;;;83.10;35.20;;;;;;;2.36;89.40;101129.66;102917;1321;97877;-78
2021/12/15 03:42:53;;;;;;;77.00;34.50;;;;;;;2.39;89.63;101133.63;104124;1321;138972;-78
2021/12/15 03:45:29;;;;;;;96.10;37.00;;;;;;;2.39;89.35;101132.27;103311;1319;107960;-78
2021/12/15 03:48:06;;;;;;;53.20;25.80;;;;;;;2.34;89.28;101126.86;103577;1320;138648;-77
2021/12/15 03:50:36;;;;;;;;;;;;;;;2.33;89.41;101130.08;104219;1319;98568;-78
2021/12/15 03:53:08;;;;;;;75.30;33.80;;;;;;;2.32;89.24;101130.41;103130;1321;124904;-78
2021/12/15 03:55:41;;;;;;;74.00;34.00;;;;;;;2.33;89.43;101136.96;102906;1321;112448;-77
2021/12/15 03:58:17;;;;;;;70.50;32.70;;;;;;;2.37;89.73;101136.88;102806;1321;107488;-77
2021/12/15 04:00:52;;;;;;;69.10;33.70;;;;;;;2.41;89.58;101137.95;103369;1321;138786;-78
2021/12/15 04:03:26;;;;;;;71.80;33.90;;;;;;;2.43;89.65;101138.15;103300;1320;95966;-78
2021/12/15 04:06:00;;;;;;;71.30;35.40;;;;;;;2.48;89.51;101140.95;103800;1320;138298;-78
2021/12/15 04:08:34;;;;;;;75.30;35.90;;;;;;;2.51;89.28;101143.91;104228;1321;113634;-78
2021/12/15 04:11:10;;;;;;;76.90;34.30;;;;;;;2.51;89.19;101147.17;103791;1320;139108;-77
2021/12/15 04:13:46;;;;;;;78.40;35.00;;;;;;;2.51;89.17;101143.06;104227;1317;108968;-77
2021/12/15 04:16:42;;;;;;;75.10;34.20;;;;;;;2.48;89.06;101143.36;103311;1320;98003;-76
2021/12/15 04:19:16;;;;;;;74.70;34.60;;;;;;;2.42;88.90;101146.20;103263;1322;97857;-77
2021/12/15 04:21:49;;;;;;;69.10;33.40;;;;;;;2.38;88.88;101143.75;103294;1320;112467;-76
2021/12/15 04:24:23;;;;;;;66.20;33.70;;;;;;;2.38;89.11;101145.30;102884;1320;138819;-77
2021/12/15 04:26:58;;;;;;;71.20;33.30;;;;;;;2.39;89.15;101150.10;102930;1324;108937;-76
2021/12/15 04:29:30;;;;;;;65.70;31.90;;;;;;;2.44;89.44;101154.14;103112;1321;139406;-77
2021/12/15 04:32:09;;;;;;;69.70;33.10;;;;;;;2.52;89.52;101160.95;104019;1320;96200;-77
2021/12/15 04:34:42;;;;;;;73.90;34.60;;;;;;;2.61;89.65;101170.70;103264;1327;112839;-77
2021/12/15 04:37:14;;;;;;;75.30;34.80;;;;;;;2.66;89.41;101172.65;104087;1320;138781;-77
2021/12/15 04:39:45;;;;;;;90.20;35.00;;;;;;;2.65;89.07;101172.29;104056;1320;109028;-77
2021/12/15 04:42:19;;;;;;;75.20;35.20;;;;;;;2.65;88.96;101171.09;102947;1327;138082;-77
2021/12/15 04:44:55;;;;;;;72.10;32.80;;;;;;;2.64;88.66;101166.77;103699;1321;96486;-77
2021/12/15 04:47:27;;;;;;;69.90;33.50;;;;;;;2.57;88.68;101163.44;103098;1321;138769;-76
2021/12/15 04:50:00;;;;;;;69.40;32.50;;;;;;;2.55;88.57;101167.87;102892;1321;109023;-77
2021/12/15 04:52:32;;;;;;;61.60;31.60;;;;;;;2.54;88.64;101172.66;102919;1324;107278;-77
2021/12/15 04:55:08;;;;;;;65.70;32.20;;;;;;;2.53;88.76;101176.94;102798;1321;138799;-78
2021/12/15 04:57:40;;;;;;;62.00;33.00;;;;;;;2.53;88.87;101183.11;104221;1323;96383;-78
2021/12/15 05:00:18;;;;;;;62.20;33.30;;;;;;;2.57;88.90;101181.45;102823;1323;138261;-77
2021/12/15 05:02:52;;;;;;;66.50;32.60;;;;;;;2.61;89.11;101179.80;104205;1321;107977;-78
2021/12/15 05:05:25;;;;;;;72.00;32.70;;;;;;;2.63;88.92;101182.05;104119;1321;138093;-78
2021/12/15 05:07:57;;;;;;;64.50;33.00;;;;;;;2.61;88.71;101180.99;104185;1320;96333;-78
2021/12/15 05:10:30;;;;;;;67.90;33.30;;;;;;;2.58;88.72;101180.95;103003;1320;97854;-77
2021/12/15 05:13:02;;;;;;;67.70;33.30;;;;;;;2.59;88.76;101181.14;102795;1320;138799;-78
2021/12/15 05:15:34;;;;;;;66.50;33.40;;;;;;;2.56;88.44;101179.39;103688;1321;108033;-76
2021/12/15 05:18:08;;;;;;;63.20;31.50;;;;;;;2.57;88.70;101174.41;102895;1327;138554;-77
2021/12/15 05:20:45;;;;;;;57.70;30.80;;;;;;;2.60;88.78;101183.05;103798;1320;96869;-80
2021/12/15 05:23:18;;;;;;;64.30;32.70;;;;;;;2.62;88.73;101189.77;103110;1320;140454;-78
2021/12/15 05:25:50;;;;;;;64.50;32.70;;;;;;;2.63;88.72;101194.77;103034;1321;112614;-77
2021/12/15 05:28:22;;;;;;;65.30;33.20;;;;;;;2.64;88.60;101198.55;103403;1324;108928;-78
2021/12/15 05:30:56;;;;;;;65.70;33.80;;;;;;;2.61;88.59;101197.46;103249;1320;138857;-77
2021/12/15 05:33:28;;;;;;;70.90;34.50;;;;;;;2.58;88.36;101195.38;103766;1320;95814;-78
2021/12/15 05:36:01;;;;;;;62.10;32.00;;;;;;;2.51;88.41;101197.67;102874;1320;142465;-77
2021/12/15 05:38:33;;;;;;;69.10;32.30;;;;;;;2.54;88.57;101196.18;103533;1320;112506;-78
2021/12/15 05:41:05;;;;;;;64.20;32.70;;;;;;;2.55;88.42;101203.58;103335;1319;138753;-78
2021/12/15 05:43:38;;;;;;;59.90;31.10;;;;;;;2.51;88.12;101202.13;103036;1325;110797;-77
2021/12/15 05:46:10;;;;;;;65.80;32.60;;;;;;;2.49;88.31;101210.50;103993;1321;95834;-77
2021/12/15 05:48:42;;;;;;;68.50;34.80;;;;;;;2.48;88.10;101213.23;102822;1317;138317;-78
2021/12/15 05:51:15;;;;;;;67.50;34.20;;;;;;;2.47;88.55;101215.44;102878;1321;112273;-78
2021/12/15 05:53:47;;;;;;;69.30;32.90;;;;;;;2.48;88.50;101218.38;104086;1320;137795;-77
2021/12/15 05:56:19;;;;;;;85.90;35.40;;;;;;;2.50;88.62;101214.80;102907;1318;108939;-78
2021/12/15 05:58:51;;;;;;;66.30;34.10;;;;;;;2.48;88.44;101217.69;102930;1320;138146;-72
2021/12/15 06:01:24;;;;;;;66.60;33.10;;;;;;;2.48;88.59;101216.14;102349;1320;97870;-78
2021/12/15 06:03:56;;;;;;;66.90;33.30;;;;;;;2.48;88.65;101217.52;102873;1320;111940;-78
2021/12/15 06:06:29;;;;;;;64.00;32.00;;;;;;;2.51;88.64;101221.87;102798;1320;139090;-78
2021/12/15 06:09:01;;;;;;;59.30;30.40;;;;;;;2.52;88.22;101225.15;102880;1320;108775;-78
2021/12/15 06:11:34;;;;;;;68.70;34.10;;;;;;;2.52;88.56;101227.38;102746;1321;139057;-77
2021/12/15 06:14:07;;;;;;;63.60;32.80;;;;;;;2.56;88.84;101231.40;102871;1323;97874;-77
2021/12/15 06:16:39;;;;;;;64.20;32.00;;;;;;;2.61;88.65;101232.16;104033;1316;112584;-77
2021/12/15 06:19:11;;;;;;;61.80;32.00;;;;;;;2.68;88.84;101229.68;102683;1326;137995;-77
2021/12/15 06:21:44;;;;;;;69.30;33.40;;;;;;;2.72;88.71;101226.68;102899;1321;109084;-79
2021/12/15 06:24:16;;;;;;;64.90;32.90;;;;;;;2.71;88.41;101241.09;102822;1320;138134;-80
2021/12/15 06:26:49;;;;;;;68.80;34.20;;;;;;;2.66;88.11;101242.02;102849;1321;97891;-79
2021/12/15 06:29:21;;;;;;;68.00;32.50;;;;;;;2.64;88.06;101244.56;102440;1320;140403;-79
2021/12/15 06:31:53;;;;;;;65.50;32.10;;;;;;;2.57;88.17;101242.92;102890;1321;108926;-77
2021/12/15 06:34:25;;;;;;;63.70;31.90;;;;;;;2.56;88.09;101243.42;103524;1321;108976;-76
2021/12/15 06:36:58;;;;;;;59.70;30.70;;;;;;;2.56;88.31;101253.54;102677;1321;138728;-78
2021/12/15 06:39:30;;;;;;;62.80;31.60;;;;;;;2.52;87.94;101251.43;103458;1321;98834;-78
2021/12/15 06:42:03;;;;;;;64.60;30.60;;;;;;;2.51;87.97;101248.65;103542;1320;138660;-79
2021/12/15 06:44:35;;;;;;;64.60;31.90;;;;;;;2.52;88.03;101249.86;104030;1320;108924;-79
2021/12/15 06:47:43;;;;;;;61.50;31.50;;;;;;;2.50;87.95;101251.18;103994;1320;137965;-78
2021/12/15 06:58:43;;;;;;;61.20;30.50;;;;;;;2.52;88.03;101268.26;103010;1320;109007;-78
2021/12/15 07:01:17;;;;;;;60.50;30.70;;;;;;;2.54;88.10;101275.67;103526;1321;138346;-79
2021/12/15 07:03:50;;;;;;;60.70;31.70;;;;;;;2.58;88.34;101279.33;104147;1324;96280;-80
2021/12/15 07:06:23;;;;;;;66.60;31.50;;;;;;;2.63;88.38;101278.55;103861;1324;138765;-78
2021/12/15 07:08:55;;;;;;;68.90;33.50;;;;;;;2.67;88.34;101282.38;104016;1327;113721;-77
2021/12/15 07:11:27;;;;;;;63.20;33.10;;;;;;;2.73;88.29;101281.81;103953;1319;138672;-78
2021/12/15 07:13:59;;;;;;;69.90;34.30;;;;;;;2.75;87.89;101282.36;103907;1325;107890;-79
2021/12/15 07:16:33;;;;;;;73.80;32.70;;;;;;;2.75;87.99;101288.72;103634;1321;97814;-78
2021/12/15 07:19:09;;;;;;;67.90;32.20;;;;;;;2.78;87.77;101283.94;103758;1321;139410;-79
2021/12/15 07:21:51;;;;;;;66.80;29.40;;;;;;;2.79;87.96;101286.89;103510;1324;111729;-78
2021/12/15 07:24:23;;;;;;;61.40;29.30;;;;;;;2.79;87.73;101286.71;102999;1324;139191;-69
2021/12/15 07:26:55;;;;;;;63.90;30.40;;;;;;;2.76;87.59;101287.88;103899;1319;108970;-70
2021/12/15 07:29:28;;;;;;;74.80;29.50;;;;;;;2.73;87.79;101287.48;102811;1324;139013;-70
2021/12/15 07:32:01;;;;;;;67.00;29.80;;;;;;;2.74;87.87;101290.24;102833;1325;97822;-70
2021/12/15 07:34:34;;;;;;;76.80;31.60;;;;;;;2.78;88.10;101286.19;104153;1321;111577;-70
2021/12/15 07:37:06;;;;;;;72.20;30.30;;;;;;;2.77;87.69;101284.45;103635;1321;139558;-69
2021/12/15 07:39:43;;;;;;;64.00;30.00;;;;;;;2.73;87.38;101279.59;103638;1320;108953;-69
2021/12/15 07:42:15;;;;;;;65.60;28.70;;;;;;;2.70;87.49;101280.05;103958;1321;138725;-71
2021/12/15 07:44:47;;;;;;;68.60;30.90;;;;;;;2.70;87.59;101278.34;102815;1323;97968;-70
2021/12/15 07:47:19;;;;;;;70.60;31.50;;;;;;;2.74;87.71;101279.95;102575;1325;139144;-71
2021/12/15 07:49:52;;;;;;;78.30;32.60;;;;;;;2.72;87.53;101271.34;102714;1324;107433;-71
2021/12/15 07:52:24;;;;;;;68.80;32.80;;;;;;;2.69;87.81;101276.77;102881;1324;108987;-71
2021/12/15 07:54:56;;;;;;;69.50;32.60;;;;;;;2.81;88.36;101284.84;102663;1321;137937;-71
2021/12/15 07:57:29;;;;;;;71.80;31.50;;;;;;;2.92;88.45;101287.27;102694;1320;97850;-71
2021/12/15 08:00:04;;;;;;;69.00;31.90;;;;;;;2.99;88.43;101283.25;103627;1320;138545;-71
2021/12/15 08:02:43;;;;;;;70.10;31.30;;;;;;;3.04;88.12;101293.45;102999;1320;110260;-71
2021/12/15 08:05:15;;;;;;;67.80;32.10;;;;;;;3.01;87.70;101301.84;102837;1321;140485;-71
2021/12/15 08:07:48;;;;;;;70.50;31.90;;;;;;;3.03;87.78;101301.34;102983;1325;97667;-69
2021/12/15 08:10:21;;;;;;;78.40;32.40;;;;;;;3.06;87.72;101308.27;104165;1319;97255;-70
2021/12/15 08:12:53;;;;;;;72.30;32.30;;;;;;;3.10;87.65;101303.88;103940;1321;140591;-71
2021/12/15 08:15:26;;;;;;;72.20;30.90;;;;;;;3.13;87.53;101308.21;103605;1319;109097;-70
2021/12/15 08:17:58;;;;;;;62.90;29.90;;;;;;;3.11;87.13;101311.27;103294;1321;139061;-71
2021/12/15 08:20:32;;;;;;;61.80;30.70;;;;;;;3.06;87.15;101315.48;103413;1324;95842;-70
2021/12/15 08:23:05;;;;;;;70.40;30.60;;;;;;;3.06;87.15;101320.48;103045;1326;139306;-70
2021/12/15 08:25:39;;;;;;;78.70;30.60;;;;;;;3.12;87.55;101323.30;104204;1323;112616;-71
2021/12/15 08:28:12;;;;;;;88.50;32.40;;;;;;;3.14;87.41;101324.73;103206;1320;108221;-70
2021/12/15 08:30:47;;;;;;;108.30;32.50;;;;;;;3.15;87.09;101326.96;103477;1326;138742;-70
2021/12/15 08:33:22;;;;;;;82.10;35.90;;;;;;;3.08;86.77;101333.22;103710;1323;97866;-71
2021/12/15 08:35:58;;;;;;;90.00;32.20;;;;;;;3.04;86.75;101334.70;102838;1325;137059;-69
2021/12/15 08:38:32;;;;;;;69.30;33.90;;;;;;;3.02;86.75;101334.66;102852;1326;112539;-70
2021/12/15 08:41:08;;;;;;;77.80;32.00;;;;;;;3.00;86.86;101334.80;103094;1320;139057;-71
2021/12/15 08:43:41;;;;;;;82.60;33.10;;;;;;;2.96;86.77;101334.58;102858;1327;108934;-71
2021/12/15 08:46:16;;;;;;;78.60;32.00;;;;;;;2.95;86.88;101339.02;103271;1320;97885;-71
2021/12/15 08:48:50;;;;;;;82.20;29.80;;;;;;;2.96;86.75;101342.82;103383;1321;139607;-71
2021/12/15 08:51:25;;;;;;;108.50;32.90;;;;;;;2.93;86.96;101343.63;104053;1325;110756;-71
2021/12/15 08:54:00;;;;;;;104.90;32.50;;;;;;;2.92;86.80;101345.51;103654;1323;138210;-70
2021/12/15 08:56:33;;;;;;;107.20;32.80;;;;;;;2.92;86.95;101335.54;103912;1321;106581;-70
2021/12/15 08:59:06;;;;;;;106.80;30.70;;;;;;;2.92;86.89;101326.10;104041;1320;138368;-70
2021/12/15 09:01:38;;;;;;;86.80;28.10;;;;;;;2.92;87.16;101322.67;104182;1321;95846;-71
2021/12/15 09:04:12;;;;;;;76.20;26.90;;;;;;;2.94;87.02;101321.31;104066;1320;111453;-71
2021/12/15 09:06:47;;;;;;;65.60;27.00;;;;;;;2.89;86.51;101319.52;104031;1320;141252;-70
2021/12/15 09:09:21;;;;;;;62.00;26.00;;;;;;;2.82;86.61;101315.78;103853;1320;107576;-70
2021/12/15 09:11:54;;;;;;;67.60;26.50;;;;;;;2.78;86.76;101316.74;103916;1320;138634;-70
2021/12/15 09:14:26;;;;;;;64.50;27.00;;;;;;;2.77;87.17;101311.95;103609;1320;96287;-68
2021/12/15 09:17:00;;;;;;;71.70;25.30;;;;;;;2.83;87.37;101309.27;103026;1320;139017;-72
2021/12/15 09:19:32;;;;;;;70.00;28.00;;;;;;;2.86;87.56;101305.02;102871;1325;108915;-71
2021/12/15 09:22:06;;;;;;;59.50;25.60;;;;;;;2.92;87.67;101297.41;102948;1320;108838;-70
2021/12/15 09:24:39;;;;;;;51.30;24.60;;;;;;;2.96;87.68;101297.98;104069;1320;138781;-72
2021/12/15 09:27:11;;;;;;;57.60;26.60;;;;;;;3.00;87.93;101292.71;104075;1321;97305;-72
2021/12/15 09:29:43;;;;;;;58.40;26.10;;;;;;;3.08;87.90;101290.27;103031;1320;138658;-71
2021/12/15 09:32:16;;;;;;;57.80;23.30;;;;;;;3.14;87.94;101293.79;104026;1325;110131;-71
2021/12/15 09:34:48;;;;;;;69.40;25.20;;;;;;;3.18;87.94;101296.07;104031;1317;108380;-71
2021/12/15 09:37:20;;;;;;;57.70;25.30;;;;;;;3.21;87.73;101300.23;103518;1326;137848;-73
2021/12/15 09:39:52;;;;;;;64.10;25.60;;;;;;;3.23;87.75;101300.96;103087;1321;97931;-72
2021/12/15 09:42:30;;;;;;;50.60;23.90;;;;;;;3.27;87.84;101300.34;103717;1324;139173;-71
2021/12/15 09:45:19;;;;;;;51.70;23.50;;;;;;;3.31;87.75;101297.65;103665;1320;109186;-72
2021/12/15 09:48:16;;;;;;;51.00;25.20;;;;;;;3.39;87.85;101299.30;103695;1327;138908;-72
2021/12/15 10:02:33;;;;;;;65.90;25.20;;;;;;;3.49;87.20;101283.29;104090;1318;107931;-72
2021/12/15 10:05:18;;;;;;;51.10;24.90;;;;;;;3.51;87.14;101281.24;103895;1319;139966;-70
2021/12/15 10:10:48;;;;;;;45.90;24.20;;;;;;;3.54;86.86;101271.98;104049;1320;112598;-71
2021/12/15 10:19:27;;;;;;;56.70;22.60;;;;;;;3.70;86.85;101261.01;103999;1321;138826;-72
2021/12/15 10:22:27;;;;;;;51.70;23.00;;;;;;;3.72;86.78;101256.56;104127;1324;95907;-72
2021/12/15 10:25:04;;;;;;;57.40;23.30;;;;;;;3.71;86.58;101257.92;104115;1321;137810;-71
2021/12/15 10:27:41;;;;;;;75.10;23.60;;;;;;;3.68;86.82;101260.99;104120;1321;108441;-72
2021/12/15 10:30:23;;;;;;;62.60;23.20;;;;;;;3.70;86.82;101261.88;103286;1324;138813;-71
2021/12/15 10:33:01;;;;;;;54.90;21.40;;;;;;;3.69;86.99;101261.17;104104;1324;96223;-72
2021/12/15 10:35:38;;;;;;;63.30;20.50;;;;;;;3.73;87.13;101255.36;104071;1321;139653;-71
2021/12/15 10:38:15;;;;;;;;;;;;;;;3.76;87.34;101255.41;103697;1320;112610;-71
2021/12/15 10:40:51;;;;;;;56.80;21.60;;;;;;;3.81;87.28;101262.53;102887;1320;109166;-71
2021/12/15 10:43:28;;;;;;;51.30;21.30;;;;;;;3.86;87.49;101264.30;102726;1321;139895;-71
2021/12/15 10:46:03;;;;;;;54.00;22.60;;;;;;;3.96;87.60;101258.58;102867;1325;97875;-71
2021/12/15 10:48:46;;;;;;;51.10;21.90;;;;;;;4.04;87.67;101259.86;104025;1324;138561;-75
2021/12/15 10:51:32;;;;;;;52.40;22.90;;;;;;;4.13;87.79;101255.99;103665;1321;112563;-72
2021/12/15 10:54:11;;;;;;;60.80;22.50;;;;;;;4.15;87.38;101258.09;102682;1320;138236;-71
2021/12/15 10:56:50;;;;;;;72.40;23.70;;;;;;;4.11;87.26;101257.34;104079;1323;110184;-71
2021/12/15 10:59:24;;;;;;;63.60;23.30;;;;;;;4.11;87.32;101252.35;103711;1317;138653;-72
2021/12/15 11:02:02;;;;;;;63.40;23.70;;;;;;;4.12;87.39;101252.35;103312;1320;97192;-71
2021/12/15 11:04:41;;;;;;;61.80;24.00;;;;;;;4.11;87.42;101247.52;102995;1320;112037;-71
2021/12/15 11:07:30;;;;;;;50.40;23.80;;;;;;;4.13;87.39;101246.00;104058;1317;138706;-71
2021/12/15 11:10:06;;;;;;;58.90;24.30;;;;;;;4.10;87.28;101246.48;103101;1321;108614;-71
2021/12/15 11:12:41;;;;;;;54.30;24.90;;;;;;;4.13;87.60;101239.48;102684;1320;140697;-71
2021/12/15 11:15:16;;;;;;;54.70;25.70;;;;;;;4.24;87.86;101235.10;103956;1321;95952;-71
2021/12/15 11:17:50;;;;;;;60.40;25.40;;;;;;;4.32;87.67;101231.05;103630;1322;138329;-71
2021/12/15 11:20:25;;;;;;;63.10;25.40;;;;;;;4.42;87.86;101230.43;103559;1321;109169;-72
2021/12/15 11:23:01;;;;;;;72.40;26.10;;;;;;;4.51;87.67;101231.04;103146;1320;108811;-71
2021/12/15 11:25:44;;;;;;;62.40;27.50;;;;;;;4.53;87.30;101229.34;104090;1321;141177;-72
2021/12/15 11:28:24;;;;;;;67.20;25.80;;;;;;;4.54;87.23;101224.86;102960;1319;97980;-70
2021/12/15 11:31:01;;;;;;;60.00;25.90;;;;;;;4.58;87.33;101219.03;102722;1320;137774;-73
2021/12/15 11:33:37;;;;;;;59.30;25.80;;;;;;;4.60;87.21;101219.73;102842;1320;109221;-73
2021/12/15 11:36:14;;;;;;;60.90;24.90;;;;;;;4.61;87.18;101219.91;102970;1320;139016;-74
2021/12/15 11:38:48;;;;;;;57.70;24.90;;;;;;;4.64;87.31;101221.99;102738;1320;97844;-73
2021/12/15 11:41:23;;;;;;;65.70;25.50;;;;;;;4.63;86.99;101227.51;102852;1325;138837;-73
2021/12/15 11:43:57;;;;;;;63.50;25.10;;;;;;;4.59;86.94;101220.59;102923;1321;111490;-72
2021/12/15 11:46:33;;;;;;;75.30;23.90;;;;;;;4.59;87.08;101218.36;102885;1320;109006;-72
2021/12/15 11:49:07;;;;;;;68.70;24.30;;;;;;;4.58;87.19;101227.64;102635;1323;138588;-71
2021/12/15 11:51:44;;;;;;;61.80;22.70;;;;;;;4.55;87.19;101230.90;104131;1322;96078;-71
2021/12/15 11:54:17;;;;;;;;;;;;;;;4.55;87.45;101231.59;104023;1320;137833;-71
2021/12/15 11:56:50;;;;;;;49.40;21.50;;;;;;;4.53;87.39;101224.52;104184;1320;113121;-72
2021/12/15 11:59:28;;;;;;;58.10;21.70;;;;;;;4.52;87.55;101217.10;104014;1321;138981;-72
2021/12/15 12:02:10;;;;;;;58.40;22.00;;;;;;;4.57;87.73;101219.38;104081;1321;109030;-72
2021/12/15 12:04:44;;;;;;;65.30;23.50;;;;;;;4.59;87.73;101220.08;103940;1320;96189;-72
2021/12/15 12:07:24;;;;;;;64.90;23.50;;;;;;;4.58;87.56;101219.21;104078;1321;140329;-72
2021/12/15 12:10:02;;;;;;;56.20;22.70;;;;;;;4.51;87.48;101219.67;103291;1321;112562;-71
2021/12/15 12:12:39;;;;;;;56.00;23.50;;;;;;;4.49;87.79;101216.23;102658;1321;138808;-72
2021/12/15 12:15:15;;;;;;;50.30;23.40;;;;;;;4.50;87.89;101219.32;102767;1320;108946;-71
2021/12/15 12:17:50;;;;;;;54.60;24.60;;;;;;;4.52;87.88;101219.34;102686;1320;139092;-72
2021/12/15 12:20:25;;;;;;;53.50;23.90;;;;;;;4.53;87.96;101218.14;104140;1321;96230;-72
2021/12/15 12:22:59;;;;;;;51.70;23.40;;;;;;;4.55;87.91;101214.88;104158;1321;112678;-72
2021/12/15 12:25:36;;;;;;;53.70;25.00;;;;;;;4.56;87.92;101206.45;103545;1320;138217;-71
2021/12/15 12:28:13;;;;;;;52.60;24.70;;;;;;;4.65;88.38;101207.19;103036;1318;109040;-71
2021/12/15 12:30:48;;;;;;;54.10;25.20;;;;;;;4.74;88.48;101214.51;102808;1321;138135;-72
2021/12/15 12:33:23;;;;;;;59.20;27.20;;;;;;;4.76;88.22;101217.27;103351;1320;97843;-71